createdAt,value
2023-04-16T00:00:52.231Z,4.80
2023-04-16T00:01:53.994Z,4.82
2023-04-16T00:02:56.012Z,4.35
2023-04-16T00:03:57.903Z,4.95
2023-04-16T00:04:59.790Z,4.78
2023-04-16T00:06:01.580Z,4.70
2023-04-16T00:07:03.205Z,4.07
2023-04-16T00:08:04.920Z,4.15
2023-04-16T00:09:06.598Z,4.27
2023-04-16T00:10:08.532Z,4.25
2023-04-16T00:11:10.502Z,4.10
2023-04-16T00:12:12.194Z,4.57
2023-04-16T00:13:13.822Z,4.90
2023-04-16T00:14:15.608Z,4.50
2023-04-16T00:15:17.309Z,4.43
2023-04-16T00:16:19.056Z,4.57
2023-04-16T00:17:20.702Z,4.78
2023-04-16T00:18:22.404Z,4.35
2023-04-16T00:19:24.036Z,4.23
2023-04-16T00:20:25.657Z,4.47
2023-04-16T00:21:27.645Z,3.85
2023-04-16T00:22:29.224Z,4.18
2023-04-16T00:23:31.158Z,4.75
2023-04-16T00:24:32.765Z,6.10
2023-04-16T00:25:34.372Z,6.15
2023-04-16T00:26:35.994Z,5.68
2023-04-16T00:27:37.657Z,6.18
2023-04-16T00:28:39.355Z,5.68
2023-04-16T00:29:40.940Z,5.13
2023-04-16T00:30:42.710Z,5.38
2023-04-16T00:31:44.351Z,5.35
2023-04-16T00:32:46.230Z,5.55
2023-04-16T00:33:47.872Z,6.40
2023-04-16T00:34:49.475Z,6.93
2023-04-16T00:35:51.354Z,7.07
2023-04-16T00:36:52.941Z,7.43
2023-04-16T00:37:54.507Z,7.07
2023-04-16T00:38:56.313Z,6.63
2023-04-16T00:39:57.966Z,7.07
2023-04-16T00:40:59.729Z,6.72
2023-04-16T00:42:01.883Z,6.70
2023-04-16T00:43:03.526Z,6.65
2023-04-16T00:44:05.184Z,6.45
2023-04-16T00:45:07.520Z,6.47
2023-04-16T00:46:09.169Z,6.63
2023-04-16T00:47:10.798Z,6.70
2023-04-16T00:48:12.373Z,6.38
2023-04-16T00:49:13.953Z,7.70
2023-04-16T00:50:16.238Z,6.80
2023-04-16T00:51:18.573Z,6.82
2023-04-16T00:52:20.458Z,7.15
2023-04-16T00:53:22.104Z,7.32
2023-04-16T00:54:25.006Z,7.68
2023-04-16T00:55:26.598Z,8.07
2023-04-16T00:56:28.195Z,7.65
2023-04-16T00:57:30.758Z,8.38
2023-04-16T00:58:33.175Z,8.15
2023-04-16T00:59:34.730Z,8.40
2023-04-16T01:00:36.464Z,8.13
2023-04-16T01:01:38.105Z,8.65
2023-04-16T01:02:39.864Z,8.20
2023-04-16T01:03:46.379Z,8.27
2023-04-16T01:04:48.067Z,8.52
2023-04-16T01:05:50.697Z,8.23
2023-04-16T01:06:52.297Z,8.43
2023-04-16T01:07:53.991Z,9.15
2023-04-16T01:08:55.587Z,8.40
2023-04-16T01:09:57.308Z,8.35
2023-04-16T01:10:58.902Z,8.20
2023-04-16T01:12:00.540Z,8.82
2023-04-16T01:13:02.220Z,8.23
2023-04-16T01:14:04.161Z,8.25
2023-04-16T01:15:06.487Z,7.75
2023-04-16T01:16:09.326Z,7.63
2023-04-16T01:17:11.002Z,7.95
2023-04-16T01:18:19.579Z,7.90
2023-04-16T01:19:21.232Z,7.68
2023-04-16T01:20:22.993Z,8.30
2023-04-16T01:21:24.584Z,8.10
2023-04-16T01:22:27.711Z,7.63
2023-04-16T01:23:29.328Z,7.10
2023-04-16T01:24:31.292Z,7.30
2023-04-16T01:25:32.905Z,7.28
2023-04-16T01:26:34.502Z,6.80
2023-04-16T01:27:37.614Z,6.50
2023-04-16T01:28:40.548Z,8.45
2023-04-16T01:29:42.136Z,7.68
2023-04-16T01:30:43.788Z,7.68
2023-04-16T01:31:46.879Z,7.40
2023-04-16T01:32:48.653Z,7.90
2023-04-16T01:33:50.344Z,8.80
2023-04-16T01:34:51.998Z,9.20
2023-04-16T01:35:53.564Z,10.60
2023-04-16T01:36:55.609Z,9.52
2023-04-16T01:37:57.226Z,10.85
2023-04-16T01:38:58.896Z,10.77
2023-04-16T01:40:00.627Z,10.57
2023-04-16T01:41:02.253Z,9.77
2023-04-16T01:42:03.896Z,9.50
2023-04-16T01:43:05.491Z,10.15
2023-04-16T01:44:07.107Z,10.00
2023-04-16T01:45:08.999Z,9.88
2023-04-16T01:46:29.581Z,9.95
2023-04-16T01:47:31.332Z,9.15
2023-04-16T01:48:32.913Z,9.35
2023-04-16T01:49:34.656Z,10.05
2023-04-16T01:50:36.361Z,10.35
2023-04-16T01:51:38.043Z,10.18
2023-04-16T01:52:39.670Z,10.20
2023-04-16T01:53:41.240Z,8.95
2023-04-16T01:54:42.920Z,9.57
2023-04-16T01:55:44.516Z,10.45
2023-04-16T01:56:47.369Z,10.27
2023-04-16T01:57:48.962Z,9.68
2023-04-16T01:58:50.589Z,10.18
2023-04-16T01:59:52.179Z,9.80
2023-04-16T02:00:54.941Z,8.95
2023-04-16T02:01:56.835Z,9.73
2023-04-16T02:02:58.517Z,9.27
2023-04-16T02:04:00.320Z,9.45
2023-04-16T02:05:02.410Z,9.38
2023-04-16T02:06:04.081Z,8.80
2023-04-16T02:07:06.147Z,10.05
2023-04-16T02:08:07.776Z,8.70
2023-04-16T02:09:10.154Z,8.70
2023-04-16T02:10:11.921Z,8.55
2023-04-16T02:11:13.498Z,8.57
2023-04-16T02:12:15.554Z,8.65
2023-04-16T02:13:17.159Z,8.80
2023-04-16T02:14:18.832Z,8.20
2023-04-16T02:15:21.358Z,7.15
2023-04-16T02:16:24.101Z,8.60
2023-04-16T02:17:25.862Z,7.00
2023-04-16T02:18:27.638Z,7.97
2023-04-16T02:19:29.516Z,7.53
2023-04-16T02:20:31.330Z,7.30
2023-04-16T02:21:32.927Z,7.75
2023-04-16T02:22:34.591Z,7.70
2023-04-16T02:23:36.205Z,7.20
2023-04-16T02:24:37.781Z,8.02
2023-04-16T02:25:43.256Z,8.05
2023-04-16T02:26:45.239Z,7.60
2023-04-16T02:27:46.906Z,7.40
2023-04-16T02:28:48.620Z,7.10
2023-04-16T02:29:50.437Z,7.00
2023-04-16T02:30:52.007Z,6.75
2023-04-16T02:31:53.644Z,7.55
2023-04-16T02:32:55.421Z,7.15
2023-04-16T02:33:57.042Z,7.30
2023-04-16T02:34:58.653Z,6.95
2023-04-16T02:36:00.510Z,6.90
2023-04-16T02:37:02.128Z,7.07
2023-04-16T02:38:04.270Z,7.20
2023-04-16T02:39:05.827Z,6.28
2023-04-16T02:40:08.150Z,6.00
2023-04-16T02:41:09.811Z,6.38
2023-04-16T02:42:11.440Z,7.70
2023-04-16T02:43:13.044Z,8.13
2023-04-16T02:44:14.659Z,8.33
2023-04-16T02:45:16.349Z,8.02
2023-04-16T02:46:18.073Z,7.60
2023-04-16T02:47:19.756Z,8.02
2023-04-16T02:48:21.385Z,7.25
2023-04-16T02:49:23.018Z,7.30
2023-04-16T02:50:24.589Z,6.20
2023-04-16T02:51:26.915Z,6.72
2023-04-16T02:52:28.482Z,6.78
2023-04-16T02:53:30.067Z,6.68
2023-04-16T02:54:32.571Z,6.27
2023-04-16T02:55:34.153Z,6.78
2023-04-16T02:56:35.950Z,6.32
2023-04-16T02:57:38.186Z,5.93
2023-04-16T02:58:39.826Z,5.95
2023-04-16T02:59:41.398Z,6.25
2023-04-16T03:00:42.974Z,6.45
2023-04-16T03:01:44.607Z,6.32
2023-04-16T03:02:46.371Z,6.60
2023-04-16T03:03:48.109Z,6.45
2023-04-16T03:04:49.753Z,6.03
2023-04-16T03:05:51.399Z,7.03
2023-04-16T03:06:53.016Z,5.63
2023-04-16T03:07:56.970Z,5.93
2023-04-16T03:08:58.609Z,5.55
2023-04-16T03:10:00.213Z,5.47
2023-04-16T03:11:01.824Z,5.68
2023-04-16T03:12:04.484Z,5.50
2023-04-16T03:13:06.100Z,5.75
2023-04-16T03:14:08.248Z,5.10
2023-04-16T03:15:11.236Z,5.43
2023-04-16T03:16:12.939Z,5.55
2023-04-16T03:17:14.553Z,5.68
2023-04-16T03:18:16.512Z,5.82
2023-04-16T03:19:18.091Z,5.80
2023-04-16T03:20:19.964Z,5.78
2023-04-16T03:21:21.576Z,5.90
2023-04-16T03:22:23.447Z,5.93
2023-04-16T03:23:25.147Z,6.85
2023-04-16T03:24:28.215Z,6.25
2023-04-16T03:25:29.852Z,6.03
2023-04-16T03:26:31.522Z,5.30
2023-04-16T03:27:33.448Z,6.03
2023-04-16T03:28:35.062Z,5.80
2023-04-16T03:29:38.443Z,5.93
2023-04-16T03:30:40.068Z,5.47
2023-04-16T03:31:41.710Z,5.75
2023-04-16T03:32:43.466Z,5.95
2023-04-16T03:33:45.082Z,5.93
2023-04-16T03:34:46.713Z,6.32
2023-04-16T03:35:57.915Z,4.83
2023-04-16T03:36:59.653Z,5.50
2023-04-16T03:38:01.505Z,5.47
2023-04-16T03:39:03.168Z,5.95
2023-04-16T03:40:08.224Z,6.15
2023-04-16T03:41:09.849Z,5.35
2023-04-16T03:42:11.486Z,6.68
2023-04-16T03:43:13.075Z,6.40
2023-04-16T03:44:14.627Z,5.70
2023-04-16T03:45:16.622Z,5.93
2023-04-16T03:46:18.255Z,5.60
2023-04-16T03:47:23.058Z,5.47
2023-04-16T03:48:24.677Z,6.18
2023-04-16T03:49:26.268Z,6.30
2023-04-16T03:50:27.873Z,6.70
2023-04-16T03:51:29.485Z,6.20
2023-04-16T03:52:31.156Z,5.90
2023-04-16T03:53:32.747Z,6.50
2023-04-16T03:54:34.385Z,6.10
2023-04-16T03:55:36.272Z,6.78
2023-04-16T03:56:37.917Z,7.23
2023-04-16T03:57:39.538Z,7.05
2023-04-16T03:58:41.143Z,7.15
2023-04-16T03:59:42.775Z,8.07
2023-04-16T04:00:44.358Z,7.13
2023-04-16T04:01:46.059Z,6.88
2023-04-16T04:02:47.855Z,7.72
2023-04-16T04:03:49.888Z,8.25
2023-04-16T04:04:51.766Z,7.45
2023-04-16T04:05:53.346Z,8.48
2023-04-16T04:06:54.928Z,8.60
2023-04-16T04:07:56.551Z,8.27
2023-04-16T04:08:59.001Z,8.82
2023-04-16T04:10:00.650Z,8.07
2023-04-16T04:11:02.271Z,8.20
2023-04-16T04:12:04.011Z,8.57
2023-04-16T04:13:06.117Z,8.07
2023-04-16T04:14:07.788Z,8.80
2023-04-16T04:15:09.999Z,8.15
2023-04-16T04:16:11.807Z,8.63
2023-04-16T04:17:13.418Z,9.30
2023-04-16T04:18:15.032Z,8.80
2023-04-16T04:19:16.615Z,9.07
2023-04-16T04:20:18.370Z,9.15
2023-04-16T04:21:20.040Z,9.68
2023-04-16T04:22:21.620Z,9.07
2023-04-16T04:23:23.287Z,10.30
2023-04-16T04:24:24.985Z,10.70
2023-04-16T04:25:26.800Z,9.50
2023-04-16T04:26:28.411Z,9.40
2023-04-16T04:27:30.054Z,9.80
2023-04-16T04:28:32.423Z,8.73
2023-04-16T04:29:34.030Z,9.45
2023-04-16T04:30:38.722Z,9.98
2023-04-16T04:31:41.047Z,9.13
2023-04-16T04:32:42.808Z,9.82
2023-04-16T04:33:44.512Z,9.30
2023-04-16T04:34:46.115Z,9.35
2023-04-16T04:35:47.788Z,9.73
2023-04-16T04:36:49.373Z,9.38
2023-04-16T04:37:50.997Z,9.33
2023-04-16T04:38:52.583Z,8.52
2023-04-16T04:39:54.188Z,8.45
2023-04-16T04:40:56.099Z,9.30
2023-04-16T04:41:57.707Z,8.20
2023-04-16T04:42:59.281Z,7.95
2023-04-16T04:44:00.903Z,8.02
2023-04-16T04:45:02.482Z,8.10
2023-04-16T04:46:04.177Z,7.68
2023-04-16T04:47:06.081Z,7.77
2023-04-16T04:48:07.677Z,7.60
2023-04-16T04:49:09.452Z,8.05
2023-04-16T04:50:11.292Z,7.90
2023-04-16T04:51:12.956Z,7.72
2023-04-16T04:52:14.550Z,8.50
2023-04-16T04:53:16.297Z,7.72
2023-04-16T04:54:17.946Z,8.43
2023-04-16T04:55:19.606Z,7.75
2023-04-16T04:56:21.326Z,7.60
2023-04-16T04:57:22.904Z,8.20
2023-04-16T04:58:24.496Z,6.90
2023-04-16T04:59:26.239Z,7.72
2023-04-16T05:00:27.839Z,7.78
2023-04-16T05:01:29.500Z,7.88
2023-04-16T05:02:31.280Z,7.93
2023-04-16T05:03:33.047Z,7.80
2023-04-16T05:04:34.822Z,7.35
2023-04-16T05:05:36.456Z,6.82
2023-04-16T05:06:38.047Z,6.72
2023-04-16T05:07:39.657Z,7.85
2023-04-16T05:08:41.220Z,6.93
2023-04-16T05:09:42.899Z,7.43
2023-04-16T05:10:44.471Z,7.40
2023-04-16T05:11:46.307Z,7.32
2023-04-16T05:12:51.120Z,7.25
2023-04-16T05:13:52.691Z,7.03
2023-04-16T05:14:54.334Z,7.10
2023-04-16T05:15:56.304Z,7.50
2023-04-16T05:16:58.109Z,7.00
2023-04-16T05:17:59.886Z,7.50
2023-04-16T05:19:01.548Z,7.57
2023-04-16T05:20:03.258Z,6.72
2023-04-16T05:21:05.221Z,7.32
2023-04-16T05:22:06.854Z,6.65
2023-04-16T05:23:08.560Z,7.75
2023-04-16T05:24:10.204Z,7.43
2023-04-16T05:25:11.780Z,7.70
2023-04-16T05:26:13.397Z,6.68
2023-04-16T05:27:15.027Z,6.55
2023-04-16T05:28:16.626Z,7.25
2023-04-16T05:29:18.251Z,6.67
2023-04-16T05:30:19.973Z,7.20
2023-04-16T05:31:21.640Z,7.20
2023-04-16T05:32:25.994Z,6.93
2023-04-16T05:33:27.584Z,7.40
2023-04-16T05:34:29.498Z,7.05
2023-04-16T05:35:31.097Z,7.57
2023-04-16T05:36:32.852Z,7.40
2023-04-16T05:37:34.467Z,7.13
2023-04-16T05:38:36.061Z,7.97
2023-04-16T05:39:37.664Z,7.30
2023-04-16T05:40:39.282Z,7.78
2023-04-16T05:41:41.036Z,7.25
2023-04-16T05:42:42.624Z,7.35
2023-04-16T05:43:44.202Z,7.53
2023-04-16T05:44:45.888Z,7.10
2023-04-16T05:45:47.560Z,7.40
2023-04-16T05:46:49.180Z,7.10
2023-04-16T05:47:50.790Z,7.72
2023-04-16T05:48:52.517Z,8.23
2023-04-16T05:49:54.146Z,7.20
2023-04-16T05:50:55.738Z,6.60
2023-04-16T05:51:57.357Z,7.45
2023-04-16T05:52:58.948Z,6.97
2023-04-16T05:54:00.709Z,7.43
2023-04-16T05:55:02.319Z,7.32
2023-04-16T05:56:04.019Z,7.20
2023-04-16T05:57:05.670Z,7.32
2023-04-16T05:58:07.301Z,6.68
2023-04-16T05:59:09.137Z,7.18
2023-04-16T06:00:11.284Z,6.80
2023-04-16T06:01:12.950Z,6.80
2023-04-16T06:02:14.721Z,6.35
2023-04-16T06:03:16.511Z,6.85
2023-04-16T06:04:18.318Z,6.60
2023-04-16T06:05:20.090Z,7.00
2023-04-16T06:06:21.989Z,6.80
2023-04-16T06:07:23.577Z,6.40
2023-04-16T06:08:25.358Z,12.50
2023-04-16T06:09:27.543Z,8.93
2023-04-16T06:10:29.495Z,8.83
2023-04-16T06:11:31.309Z,10.25
2023-04-16T06:12:33.193Z,7.78
2023-04-16T06:13:34.768Z,7.18
2023-04-16T06:14:36.378Z,8.15
2023-04-16T06:15:38.963Z,7.15
2023-04-16T06:16:41.121Z,8.00
2023-04-16T06:17:42.804Z,8.10
2023-04-16T06:18:44.483Z,7.15
2023-04-16T06:19:46.337Z,7.25
2023-04-16T06:20:48.214Z,7.30
2023-04-16T06:21:50.127Z,6.72
2023-04-16T06:22:51.690Z,6.35
2023-04-16T06:23:53.984Z,6.47
2023-04-16T06:24:55.798Z,7.40
2023-04-16T06:25:57.415Z,6.70
2023-04-16T06:26:59.014Z,6.68
2023-04-16T06:28:00.690Z,6.85
2023-04-16T06:29:02.293Z,6.28
2023-04-16T06:30:05.112Z,6.30
2023-04-16T06:31:06.713Z,6.90
2023-04-16T06:32:08.371Z,7.13
2023-04-16T06:33:09.937Z,6.90
2023-04-16T06:34:11.520Z,6.32
2023-04-16T06:35:13.156Z,7.15
2023-04-16T06:36:14.763Z,6.85
2023-04-16T06:37:16.497Z,7.43
2023-04-16T06:38:18.605Z,6.95
2023-04-16T06:39:21.882Z,6.93
2023-04-16T06:40:23.507Z,7.25
2023-04-16T06:41:26.723Z,6.37
2023-04-16T06:42:28.476Z,7.53
2023-04-16T06:43:30.333Z,7.18
2023-04-16T06:44:31.959Z,7.40
2023-04-16T06:45:33.661Z,7.20
2023-04-16T06:46:35.399Z,6.32
2023-04-16T06:47:37.111Z,6.90
2023-04-16T06:48:38.762Z,7.40
2023-04-16T06:49:40.427Z,6.63
2023-04-16T06:50:42.033Z,6.40
2023-04-16T06:51:44.574Z,6.87
2023-04-16T06:52:46.436Z,6.90
2023-04-16T06:53:49.027Z,6.97
2023-04-16T06:54:50.712Z,6.75
2023-04-16T06:55:52.287Z,7.55
2023-04-16T06:56:53.860Z,7.43
2023-04-16T06:57:55.846Z,6.95
2023-04-16T06:58:58.923Z,7.18
2023-04-16T07:00:00.552Z,6.70
2023-04-16T07:01:02.780Z,6.30
2023-04-16T07:02:04.515Z,6.43
2023-04-16T07:03:06.481Z,6.60
2023-04-16T07:04:08.288Z,5.85
2023-04-16T07:05:10.046Z,6.72
2023-04-16T07:06:11.754Z,6.80
2023-04-16T07:07:13.358Z,6.10
2023-04-16T07:08:14.997Z,5.88
2023-04-16T07:09:17.985Z,5.95
2023-04-16T07:10:19.673Z,5.90
2023-04-16T07:11:21.523Z,5.72
2023-04-16T07:12:23.218Z,6.17
2023-04-16T07:13:24.927Z,6.53
2023-04-16T07:14:26.708Z,5.78
2023-04-16T07:15:28.649Z,5.32
2023-04-16T07:16:30.851Z,5.65
2023-04-16T07:17:32.574Z,5.40
2023-04-16T07:18:34.245Z,6.15
2023-04-16T07:19:36.023Z,5.35
2023-04-16T07:20:37.673Z,5.80
2023-04-16T07:21:39.405Z,6.03
2023-04-16T07:22:41.098Z,6.90
2023-04-16T07:23:42.808Z,7.10
2023-04-16T07:24:44.436Z,7.47
2023-04-16T07:25:46.645Z,7.43
2023-04-16T07:26:48.438Z,6.15
2023-04-16T07:27:50.093Z,6.03
2023-04-16T07:28:51.696Z,6.50
2023-04-16T07:29:54.872Z,6.93
2023-04-16T07:30:56.474Z,6.60
2023-04-16T07:31:58.129Z,6.05
2023-04-16T07:33:01.613Z,5.80
2023-04-16T07:34:03.260Z,5.78
2023-04-16T07:35:05.184Z,5.75
2023-04-16T07:36:07.019Z,5.55
2023-04-16T07:37:08.973Z,5.63
2023-04-16T07:38:10.648Z,5.45
2023-04-16T07:39:13.245Z,5.30
2023-04-16T07:40:15.050Z,4.75
2023-04-16T07:41:16.714Z,5.40
2023-04-16T07:42:18.509Z,5.22
2023-04-16T07:43:20.115Z,5.40
2023-04-16T07:44:21.725Z,5.68
2023-04-16T07:45:23.631Z,5.38
2023-04-16T07:46:30.379Z,5.72
2023-04-16T07:47:34.901Z,5.05
2023-04-16T07:48:36.663Z,5.30
2023-04-16T07:49:38.403Z,5.82
2023-04-16T07:50:40.028Z,5.35
2023-04-16T07:51:41.652Z,6.18
2023-04-16T07:52:45.343Z,5.57
2023-04-16T07:53:46.919Z,5.30
2023-04-16T07:54:48.637Z,4.78
2023-04-16T07:55:50.440Z,5.10
2023-04-16T07:56:52.392Z,4.85
2023-04-16T07:57:54.020Z,5.78
2023-04-16T07:58:55.852Z,5.18
2023-04-16T07:59:57.496Z,5.82
2023-04-16T08:00:59.180Z,5.43
2023-04-16T08:02:01.098Z,5.50
2023-04-16T08:03:02.922Z,5.78
2023-04-16T08:04:04.796Z,5.80
2023-04-16T08:05:07.026Z,5.20
2023-04-16T08:06:08.721Z,5.95
2023-04-16T08:07:10.360Z,5.65
2023-04-16T08:08:12.078Z,5.28
2023-04-16T08:09:13.721Z,5.70
2023-04-16T08:10:15.728Z,6.07
2023-04-16T08:11:17.326Z,5.70
2023-04-16T08:12:19.007Z,5.82
2023-04-16T08:13:20.754Z,5.38
2023-04-16T08:14:22.360Z,5.30
2023-04-16T08:15:24.095Z,5.38
2023-04-16T08:16:25.921Z,5.25
2023-04-16T08:17:29.616Z,5.18
2023-04-16T08:18:31.248Z,5.68
2023-04-16T08:19:32.885Z,5.18
2023-04-16T08:20:34.557Z,5.45
2023-04-16T08:21:36.366Z,5.35
2023-04-16T08:22:37.966Z,5.30
2023-04-16T08:23:39.516Z,6.07
2023-04-16T08:24:41.269Z,5.50
2023-04-16T08:25:42.865Z,5.68
2023-04-16T08:26:44.441Z,5.25
2023-04-16T08:27:46.031Z,5.55
2023-04-16T08:28:47.615Z,4.45
2023-04-16T08:29:49.315Z,4.57
2023-04-16T08:30:51.107Z,4.10
2023-04-16T08:31:55.796Z,4.50
2023-04-16T08:32:57.495Z,4.53
2023-04-16T08:34:00.159Z,4.60
2023-04-16T08:35:01.820Z,4.67
2023-04-16T08:36:03.631Z,4.05
2023-04-16T08:37:05.223Z,4.60
2023-04-16T08:38:07.732Z,4.65
2023-04-16T08:39:09.749Z,4.32
2023-04-16T08:40:11.998Z,4.47
2023-04-16T08:41:14.069Z,4.03
2023-04-16T08:42:45.765Z,7.60
2023-04-16T08:43:47.604Z,4.63
2023-04-16T08:44:50.018Z,4.90
2023-04-16T08:45:52.062Z,11.47
2023-04-16T08:46:58.888Z,5.35
2023-04-16T08:48:00.694Z,4.85
2023-04-16T08:49:02.447Z,4.68
2023-04-16T08:50:05.289Z,4.40
2023-04-16T08:51:07.747Z,5.20
2023-04-16T08:52:09.415Z,4.88
2023-04-16T08:53:11.431Z,4.30
2023-04-16T08:54:13.327Z,4.53
2023-04-16T08:55:14.989Z,4.88
2023-04-16T08:56:16.576Z,4.30
2023-04-16T08:57:19.752Z,4.50
2023-04-16T08:58:22.254Z,4.78
2023-04-16T08:59:23.898Z,4.88
2023-04-16T09:00:25.562Z,4.80
2023-04-16T09:01:27.658Z,4.40
2023-04-16T09:02:29.377Z,5.10
2023-04-16T09:03:33.387Z,5.05
2023-04-16T09:04:37.487Z,5.25
2023-04-16T09:05:39.484Z,5.28
2023-04-16T09:06:41.682Z,4.90
2023-04-16T09:07:47.817Z,4.82
2023-04-16T09:08:49.406Z,4.75
2023-04-16T09:09:51.149Z,4.80
2023-04-16T09:10:53.033Z,5.03
2023-04-16T09:11:54.745Z,5.10
2023-04-16T09:12:57.112Z,4.57
2023-04-16T09:13:58.728Z,4.38
2023-04-16T09:15:02.913Z,4.40
2023-04-16T09:16:04.849Z,4.80
2023-04-16T09:17:06.432Z,4.37
2023-04-16T09:18:08.818Z,5.03
2023-04-16T09:19:10.552Z,4.60
2023-04-16T09:20:12.648Z,4.38
2023-04-16T09:21:14.312Z,4.97
2023-04-16T09:22:17.232Z,4.35
2023-04-16T09:23:18.835Z,4.18
2023-04-16T09:24:21.759Z,4.72
2023-04-16T09:25:23.371Z,4.43
2023-04-16T09:26:25.025Z,4.70
2023-04-16T09:27:27.088Z,4.80
2023-04-16T09:28:57.770Z,4.30
2023-04-16T09:29:59.429Z,4.72
2023-04-16T09:31:17.967Z,4.35
2023-04-16T09:32:24.620Z,4.93
2023-04-16T09:33:26.259Z,4.97
2023-04-16T09:34:27.826Z,4.93
2023-04-16T09:35:29.423Z,4.72
2023-04-16T09:36:34.139Z,4.10
2023-04-16T09:37:35.830Z,4.70
2023-04-16T09:38:51.351Z,4.80
2023-04-16T09:40:03.949Z,4.82
2023-04-16T09:41:08.968Z,4.43
2023-04-16T09:42:11.380Z,4.55
2023-04-16T09:43:19.132Z,4.97
2023-04-16T09:44:20.861Z,4.70
2023-04-16T09:45:22.522Z,4.53
2023-04-16T09:46:43.008Z,4.80
2023-04-16T09:47:45.521Z,4.63
2023-04-16T09:48:47.310Z,3.88
2023-04-16T09:49:49.001Z,3.87
2023-04-16T09:50:51.395Z,3.97
2023-04-16T09:51:56.177Z,4.03
2023-04-16T09:52:57.771Z,4.63
2023-04-16T09:53:59.351Z,3.60
2023-04-16T09:55:00.971Z,3.05
2023-04-16T09:56:04.701Z,3.20
2023-04-16T09:57:06.400Z,3.42
2023-04-16T09:58:08.034Z,3.25
2023-04-16T09:59:25.743Z,3.30
2023-04-16T10:00:28.306Z,3.33
2023-04-16T10:01:30.623Z,3.40
2023-04-16T10:02:33.350Z,3.40
2023-04-16T10:03:36.381Z,3.55
2023-04-16T10:04:57.619Z,3.30
2023-04-16T10:06:08.948Z,3.65
2023-04-16T10:07:10.610Z,3.42
2023-04-16T10:08:13.431Z,3.30
2023-04-16T10:09:15.112Z,3.42
2023-04-16T10:10:16.770Z,3.90
2023-04-16T10:11:19.467Z,3.90
2023-04-16T10:12:21.184Z,3.60
2023-04-16T10:13:22.809Z,3.28
2023-04-16T10:14:24.402Z,2.60
2023-04-16T10:15:26.195Z,2.40
2023-04-16T10:16:27.960Z,2.30
2023-04-16T10:17:30.444Z,1.17
2023-04-16T10:18:32.114Z,1.23
2023-04-16T10:19:33.885Z,1.23
2023-04-16T10:20:35.582Z,1.13
2023-04-16T10:21:37.192Z,1.40
2023-04-16T10:22:38.861Z,1.73
2023-04-16T10:23:40.571Z,1.90
2023-04-16T10:24:42.440Z,1.35
2023-04-16T10:25:45.197Z,1.10
2023-04-16T10:26:46.942Z,1.20
2023-04-16T10:27:48.527Z,1.40
2023-04-16T10:28:50.170Z,1.30
2023-04-16T10:29:51.769Z,1.10
2023-04-16T10:30:53.458Z,1.23
2023-04-16T10:31:55.468Z,0.70
2023-04-16T10:32:59.669Z,1.20
2023-04-16T10:34:02.563Z,1.33
2023-04-16T10:35:05.193Z,1.52
2023-04-16T10:36:27.752Z,1.90
2023-04-16T10:37:31.307Z,1.58
2023-04-16T10:38:32.892Z,1.10
2023-04-16T10:39:37.503Z,1.48
2023-04-16T10:40:39.223Z,1.15
2023-04-16T10:41:41.910Z,1.30
2023-04-16T10:42:54.343Z,0.90
2023-04-16T10:44:12.462Z,1.20
2023-04-16T10:45:14.162Z,0.80
2023-04-16T10:46:22.821Z,0.98
2023-04-16T10:47:24.860Z,1.05
2023-04-16T10:48:30.808Z,1.30
2023-04-16T10:49:37.311Z,0.90
2023-04-16T10:50:39.805Z,0.82
2023-04-16T10:51:41.577Z,1.38
2023-04-16T10:52:43.165Z,1.30
2023-04-16T10:53:44.756Z,0.80
2023-04-16T10:54:47.892Z,1.38
2023-04-16T10:56:10.651Z,1.30
2023-04-16T10:57:18.547Z,1.38
2023-04-16T10:58:32.497Z,1.85
2023-04-16T10:59:35.932Z,1.20
2023-04-16T11:00:51.302Z,0.88
2023-04-16T11:01:56.770Z,1.08
2023-04-16T11:02:58.690Z,1.40
2023-04-16T11:04:02.190Z,1.30
2023-04-16T11:05:04.276Z,0.73
2023-04-16T11:06:23.755Z,1.20
2023-04-16T11:07:33.502Z,0.98
2023-04-16T11:08:44.291Z,1.00
2023-04-16T11:09:56.827Z,1.10
2023-04-16T11:10:58.780Z,0.90
2023-04-16T11:12:00.425Z,1.00
2023-04-16T11:13:02.006Z,1.20
2023-04-16T11:14:03.617Z,0.90
2023-04-16T11:15:09.355Z,1.13
2023-04-16T11:16:11.309Z,1.20
2023-04-16T11:17:12.924Z,1.67
2023-04-16T11:18:14.915Z,1.40
2023-04-16T11:19:17.692Z,1.20
2023-04-16T11:20:23.965Z,1.20
2023-04-16T11:21:25.628Z,1.10
2023-04-16T11:22:27.272Z,1.10
2023-04-16T11:23:28.849Z,1.40
2023-04-16T11:24:33.975Z,1.10
2023-04-16T11:25:35.702Z,1.25
2023-04-16T11:26:37.320Z,1.03
2023-04-16T11:27:39.127Z,1.40
2023-04-16T11:28:40.855Z,1.05
2023-04-16T11:29:43.012Z,0.98
2023-04-16T11:30:46.199Z,1.00
2023-04-16T11:31:53.921Z,0.70
2023-04-16T11:32:55.799Z,1.10
2023-04-16T11:33:57.864Z,0.90
2023-04-16T11:35:03.622Z,1.13
2023-04-16T11:36:06.027Z,0.73
2023-04-16T11:37:07.692Z,0.90
2023-04-16T11:38:09.297Z,1.00
2023-04-16T11:39:11.048Z,0.88
2023-04-16T11:40:13.042Z,0.82
2023-04-16T11:41:19.678Z,0.80
2023-04-16T11:42:26.825Z,0.90
2023-04-16T11:43:28.659Z,0.80
2023-04-16T11:44:30.504Z,0.90
2023-04-16T11:45:32.139Z,0.90
2023-04-16T11:46:40.657Z,1.00
2023-04-16T11:47:47.806Z,1.00
2023-04-16T11:48:53.349Z,1.00
2023-04-16T11:49:55.031Z,0.98
2023-04-16T11:50:57.396Z,0.80
2023-04-16T11:51:59.132Z,1.05
2023-04-16T11:53:04.791Z,1.08
2023-04-16T11:54:07.696Z,0.82
2023-04-16T11:55:10.670Z,1.00
2023-04-16T11:56:12.300Z,1.20
2023-04-16T11:57:13.920Z,1.00
2023-04-16T11:58:16.993Z,1.00
2023-04-16T11:59:20.689Z,1.10
2023-04-16T12:00:24.566Z,4.20
2023-04-16T12:01:26.736Z,1.85
2023-04-16T12:02:56.827Z,1.58
2023-04-16T12:04:02.166Z,0.88
2023-04-16T12:05:04.980Z,0.90
2023-04-16T12:06:09.961Z,1.25
2023-04-16T12:07:12.811Z,1.20
2023-04-16T12:08:28.257Z,1.10
2023-04-16T12:09:29.857Z,1.40
2023-04-16T12:10:38.768Z,1.20
2023-04-16T12:11:43.635Z,1.00
2023-04-16T12:12:45.239Z,0.90
2023-04-16T12:14:12.174Z,0.90
2023-04-16T12:15:14.051Z,0.95
2023-04-16T12:16:19.873Z,1.10
2023-04-16T12:17:21.583Z,1.00
2023-04-16T12:18:24.535Z,0.93
2023-04-16T12:19:26.613Z,1.20
2023-04-16T12:20:34.625Z,0.90
2023-04-16T12:21:40.038Z,0.90
2023-04-16T12:22:46.170Z,1.10
2023-04-16T12:23:47.731Z,1.00
2023-04-16T12:24:49.330Z,0.90
2023-04-16T12:25:52.067Z,0.88
2023-04-16T12:26:56.781Z,1.00
2023-04-16T12:27:58.666Z,0.73
2023-04-16T12:29:26.408Z,0.90
2023-04-16T12:30:28.059Z,0.75
2023-04-16T12:31:38.982Z,0.90
2023-04-16T12:32:41.470Z,0.80
2023-04-16T12:33:43.112Z,0.90
2023-04-16T12:34:51.439Z,1.00
2023-04-16T12:35:53.124Z,0.98
2023-04-16T12:37:07.405Z,1.05
2023-04-16T12:38:09.101Z,0.88
2023-04-16T12:39:11.337Z,0.95
2023-04-16T12:40:13.258Z,1.20
2023-04-16T12:41:14.965Z,1.05
2023-04-16T12:42:16.857Z,1.00
2023-04-16T12:43:19.781Z,1.02
2023-04-16T12:44:21.563Z,1.10
2023-04-16T12:45:23.205Z,0.90
2023-04-16T12:46:24.827Z,0.70
2023-04-16T12:47:26.480Z,0.90
2023-04-16T12:48:28.151Z,0.80
2023-04-16T12:49:29.720Z,0.82
2023-04-16T12:50:31.345Z,1.17
2023-04-16T12:51:33.659Z,0.90
2023-04-16T12:52:35.570Z,0.90
2023-04-16T12:53:37.198Z,0.70
2023-04-16T12:54:38.866Z,0.80
2023-04-16T12:55:40.657Z,0.93
2023-04-16T12:56:42.270Z,0.57
2023-04-16T12:57:44.534Z,0.63
2023-04-16T12:58:46.499Z,0.70
2023-04-16T12:59:48.129Z,0.68
2023-04-16T13:00:49.851Z,0.68
2023-04-16T13:01:51.562Z,0.68
2023-04-16T13:02:53.361Z,0.67
2023-04-16T13:03:55.245Z,0.50
2023-04-16T13:04:57.085Z,0.63
2023-04-16T13:05:58.799Z,0.45
2023-04-16T13:07:00.727Z,0.75
2023-04-16T13:08:02.369Z,0.90
2023-04-16T13:09:04.779Z,0.60
2023-04-16T13:10:06.764Z,0.70
2023-04-16T13:11:08.428Z,0.50
2023-04-16T13:12:10.109Z,0.60
2023-04-16T13:13:11.747Z,0.50
2023-04-16T13:14:13.390Z,0.40
2023-04-16T13:15:15.335Z,0.70
2023-04-16T13:16:17.067Z,0.60
2023-04-16T13:17:18.899Z,0.63
2023-04-16T13:18:20.709Z,0.40
2023-04-16T13:19:22.413Z,0.93
2023-04-16T13:20:24.632Z,0.55
2023-04-16T13:21:27.493Z,0.60
2023-04-16T13:22:29.178Z,0.80
2023-04-16T13:23:30.852Z,0.70
2023-04-16T13:24:32.496Z,0.80
2023-04-16T13:25:34.203Z,0.40
2023-04-16T13:26:36.137Z,0.60
2023-04-16T13:27:37.788Z,0.40
2023-04-16T13:28:39.805Z,0.43
2023-04-16T13:29:42.127Z,0.60
2023-04-16T13:30:43.822Z,0.60
2023-04-16T13:31:45.929Z,0.85
2023-04-16T13:32:47.819Z,0.60
2023-04-16T13:33:50.373Z,0.60
2023-04-16T13:34:52.108Z,0.80
2023-04-16T13:35:53.903Z,0.90
2023-04-16T13:36:56.249Z,0.80
2023-04-16T13:38:01.252Z,0.90
2023-04-16T13:39:06.665Z,0.93
2023-04-16T13:40:09.533Z,0.73
2023-04-16T13:41:11.256Z,0.85
2023-04-16T13:42:12.855Z,0.90
2023-04-16T13:43:19.063Z,1.20
2023-04-16T13:44:20.712Z,1.00
2023-04-16T13:45:22.426Z,1.30
2023-04-16T13:46:24.269Z,13.82
2023-04-16T13:47:26.282Z,11.18
2023-04-16T13:48:28.280Z,31.38
2023-04-16T13:49:32.200Z,21.77
2023-04-16T13:50:35.736Z,4.18
2023-04-16T13:51:37.686Z,1.30
2023-04-16T13:52:39.476Z,6.13
2023-04-16T13:53:41.598Z,8.10